createdAt,value
2022-09-24T00:00:26.816Z,11.66
2022-09-24T00:01:26.887Z,11.78
2022-09-24T00:02:26.910Z,11.74
2022-09-24T00:03:27.818Z,11.67
2022-09-24T00:04:26.779Z,11.69
2022-09-24T00:05:26.778Z,11.78
2022-09-24T00:06:26.772Z,11.60
2022-09-24T00:07:26.760Z,11.66
2022-09-24T00:08:26.777Z,11.57
2022-09-24T00:09:26.740Z,11.56
2022-09-24T00:10:26.746Z,11.48
2022-09-24T00:11:26.745Z,11.63
2022-09-24T00:12:26.737Z,11.66
2022-09-24T00:13:26.770Z,11.74
2022-09-24T00:14:26.764Z,11.82
2022-09-24T00:15:26.721Z,11.78
2022-09-24T00:16:26.763Z,11.77
2022-09-24T00:17:26.828Z,11.79
2022-09-24T00:18:26.642Z,11.75
2022-09-24T00:19:26.649Z,11.84
2022-09-24T00:20:26.602Z,11.78
2022-09-24T00:21:26.601Z,11.88
2022-09-24T00:22:26.626Z,11.87
2022-09-24T00:23:26.580Z,11.87
2022-09-24T00:24:26.575Z,11.94
2022-09-24T00:25:26.562Z,11.84
2022-09-24T00:26:26.573Z,11.79
2022-09-24T00:27:26.595Z,11.74
2022-09-24T00:28:27.727Z,11.87
2022-09-24T00:29:26.594Z,11.75
2022-09-24T00:30:26.522Z,11.79
2022-09-24T00:31:26.539Z,11.82
2022-09-24T00:32:26.519Z,11.77
2022-09-24T00:33:26.506Z,11.84
2022-09-24T00:34:26.548Z,11.74
2022-09-24T00:35:26.507Z,11.67
2022-09-24T00:36:26.514Z,11.66
2022-09-24T00:37:26.494Z,11.49
2022-09-24T00:38:26.463Z,11.60
2022-09-24T00:39:26.529Z,11.57
2022-09-24T00:40:26.502Z,11.53
2022-09-24T00:41:26.412Z,11.51
2022-09-24T00:42:26.450Z,11.53
2022-09-24T00:43:26.420Z,11.56
2022-09-24T00:44:26.378Z,11.48
2022-09-24T00:45:26.363Z,11.41
2022-09-24T00:46:26.835Z,11.36
2022-09-24T00:47:26.351Z,11.21
2022-09-24T00:48:26.367Z,11.19
2022-09-24T00:49:26.694Z,11.12
2022-09-24T00:50:26.412Z,11.19
2022-09-24T00:51:26.335Z,11.20
2022-09-24T00:52:26.339Z,11.12
2022-09-24T00:53:26.351Z,10.98
2022-09-24T00:54:26.284Z,10.95
2022-09-24T00:55:26.280Z,10.86
2022-09-24T00:56:26.268Z,10.87
2022-09-24T00:57:26.250Z,10.86
2022-09-24T00:58:26.289Z,10.98
2022-09-24T00:59:26.275Z,10.95
2022-09-24T01:00:26.346Z,11.06
2022-09-24T01:01:26.322Z,11.01
2022-09-24T01:02:26.343Z,11.03
2022-09-24T01:03:26.241Z,10.95
2022-09-24T01:04:26.193Z,11.03
2022-09-24T01:05:26.211Z,10.94
2022-09-24T01:06:26.169Z,10.95
2022-09-24T01:07:26.244Z,10.93
2022-09-24T01:08:26.209Z,10.98
2022-09-24T01:09:26.219Z,10.99
2022-09-24T01:10:26.305Z,11.01
2022-09-24T01:11:26.363Z,11.01
2022-09-24T01:12:26.121Z,11.01
2022-09-24T01:13:26.092Z,11.16
2022-09-24T01:14:26.120Z,11.03
2022-09-24T01:15:26.159Z,11.01
2022-09-24T01:16:26.173Z,10.95
2022-09-24T01:17:26.129Z,10.94
2022-09-24T01:18:26.009Z,10.91
2022-09-24T01:19:26.029Z,10.95
2022-09-24T01:20:26.169Z,11.13
2022-09-24T01:21:26.005Z,11.08
2022-09-24T01:22:26.036Z,11.06
2022-09-24T01:23:26.057Z,11.09
2022-09-24T01:24:25.956Z,11.06
2022-09-24T01:25:26.027Z,11.11
2022-09-24T01:26:25.960Z,11.02
2022-09-24T01:27:26.040Z,10.98
2022-09-24T01:28:25.938Z,10.76
2022-09-24T01:29:25.959Z,10.75
2022-09-24T01:30:25.956Z,10.62
2022-09-24T01:31:26.008Z,10.70
2022-09-24T01:32:30.182Z,10.55
2022-09-24T01:33:27.901Z,10.58
2022-09-24T01:34:25.991Z,10.65
2022-09-24T01:35:25.898Z,10.68
2022-09-24T01:36:25.869Z,10.58
2022-09-24T01:37:25.868Z,10.55
2022-09-24T01:38:25.832Z,10.43
2022-09-24T01:39:25.866Z,10.39
2022-09-24T01:40:25.871Z,10.26
2022-09-24T01:41:25.788Z,10.34
2022-09-24T01:42:59.366Z,10.43
2022-09-24T01:43:25.835Z,10.46
2022-09-24T01:44:25.779Z,10.49
2022-09-24T01:45:25.891Z,10.58
2022-09-24T01:46:25.846Z,10.58
2022-09-24T01:47:25.863Z,10.58
2022-09-24T01:48:25.802Z,10.73
2022-09-24T01:49:25.755Z,10.66
2022-09-24T01:50:25.770Z,10.54
2022-09-24T01:51:25.694Z,10.65
2022-09-24T01:52:25.862Z,10.65
2022-09-24T01:53:25.715Z,10.72
2022-09-24T01:54:25.676Z,10.63
2022-09-24T01:55:25.682Z,10.57
2022-09-24T01:56:25.691Z,10.57
2022-09-24T01:57:25.698Z,10.60
2022-09-24T01:58:25.711Z,10.58
2022-09-24T01:59:25.630Z,10.62
2022-09-24T02:00:25.685Z,10.54
2022-09-24T02:01:25.683Z,10.44
2022-09-24T02:02:25.694Z,10.47
2022-09-24T02:03:25.583Z,10.44
2022-09-24T02:04:25.577Z,10.57
2022-09-24T02:05:25.614Z,10.55
2022-09-24T02:06:25.591Z,10.51
2022-09-24T02:07:25.755Z,10.68
2022-09-24T02:08:25.554Z,10.65
2022-09-24T02:09:25.587Z,10.68
2022-09-24T02:10:26.451Z,10.75
2022-09-24T02:11:25.515Z,10.80
2022-09-24T02:12:25.498Z,10.68
2022-09-24T02:13:25.499Z,10.73
2022-09-24T02:14:25.486Z,10.62
2022-09-24T02:15:28.933Z,10.55
2022-09-24T02:16:27.512Z,10.58
2022-09-24T02:17:25.453Z,10.65
2022-09-24T02:18:25.466Z,10.60
2022-09-24T02:19:25.391Z,10.62
2022-09-24T02:20:25.420Z,10.66
2022-09-24T02:21:25.520Z,10.75
2022-09-24T02:22:25.428Z,10.90
2022-09-24T02:23:25.324Z,10.90
2022-09-24T02:24:25.418Z,10.86
2022-09-24T02:25:25.356Z,11.01
2022-09-24T02:26:25.368Z,10.95
2022-09-24T02:27:25.339Z,11.01
2022-09-24T02:28:25.414Z,10.99
2022-09-24T02:29:25.480Z,11.08
2022-09-24T02:30:25.309Z,11.11
2022-09-24T02:31:25.354Z,11.08
2022-09-24T02:32:25.393Z,11.16
2022-09-24T02:33:25.233Z,11.16
2022-09-24T02:34:25.213Z,11.13
2022-09-24T02:35:25.235Z,11.09
2022-09-24T02:36:25.260Z,11.11
2022-09-24T02:37:25.193Z,11.11
2022-09-24T02:38:25.203Z,11.11
2022-09-24T02:39:25.166Z,11.06
2022-09-24T02:40:25.184Z,11.09
2022-09-24T02:41:25.159Z,11.16
2022-09-24T02:42:25.149Z,11.16
2022-09-24T02:43:25.121Z,11.09
2022-09-24T02:44:25.126Z,10.98
2022-09-24T02:45:25.155Z,11.09
2022-09-24T02:46:25.156Z,11.05
2022-09-24T02:47:25.073Z,10.91
2022-09-24T02:48:25.092Z,11.01
2022-09-24T02:49:25.043Z,10.91
2022-09-24T02:50:25.069Z,10.63
2022-09-24T02:51:25.069Z,10.55
2022-09-24T02:52:25.013Z,10.58
2022-09-24T02:53:25.005Z,10.58
2022-09-24T02:54:25.057Z,10.65
2022-09-24T02:55:24.981Z,10.73
2022-09-24T02:56:25.005Z,10.81
2022-09-24T02:57:24.982Z,10.80
2022-09-24T02:58:25.008Z,10.83
2022-09-24T02:59:24.985Z,10.90
2022-09-24T03:00:24.965Z,10.88
2022-09-24T03:01:25.035Z,10.95
2022-09-24T03:02:25.030Z,10.98
2022-09-24T03:03:24.910Z,11.02
2022-09-24T03:04:24.865Z,10.98
2022-09-24T03:05:24.911Z,10.99
2022-09-24T03:06:25.800Z,10.95
2022-09-24T03:07:24.851Z,10.95
2022-09-24T03:08:24.925Z,10.91
2022-09-24T03:09:24.819Z,10.99
2022-09-24T03:10:24.828Z,11.01
2022-09-24T03:11:24.837Z,11.06
2022-09-24T03:12:24.778Z,11.09
2022-09-24T03:13:24.792Z,11.01
2022-09-24T03:14:24.757Z,11.05
2022-09-24T03:15:24.772Z,11.17
2022-09-24T03:16:24.844Z,11.08
2022-09-24T03:17:25.434Z,11.01
2022-09-24T03:18:24.777Z,10.98
2022-09-24T03:19:24.731Z,11.01
2022-09-24T03:20:24.732Z,11.03
2022-09-24T03:21:24.689Z,11.09
2022-09-24T03:22:24.737Z,11.02
2022-09-24T03:23:24.701Z,10.94
2022-09-24T03:24:24.704Z,11.02
2022-09-24T03:25:24.703Z,10.98
2022-09-24T03:26:24.705Z,10.93
2022-09-24T03:27:24.669Z,10.95
2022-09-24T03:28:24.626Z,10.99
2022-09-24T03:29:24.722Z,10.87
2022-09-24T03:30:24.661Z,10.83
2022-09-24T03:31:24.662Z,10.81
2022-09-24T03:32:24.621Z,10.81
2022-09-24T03:33:24.626Z,10.66
2022-09-24T03:34:24.657Z,10.63
2022-09-24T03:35:24.567Z,10.57
2022-09-24T03:36:25.400Z,10.63
2022-09-24T03:37:24.530Z,10.60
2022-09-24T03:38:24.583Z,10.60
2022-09-24T03:39:24.529Z,10.66
2022-09-24T03:40:24.603Z,10.62
2022-09-24T03:41:24.506Z,10.65
2022-09-24T03:42:24.515Z,10.52
2022-09-24T03:43:24.545Z,10.63
2022-09-24T03:44:24.472Z,10.57
2022-09-24T03:45:24.490Z,10.69
2022-09-24T03:46:24.484Z,10.68
2022-09-24T03:47:24.440Z,10.62
2022-09-24T03:48:24.489Z,10.65
2022-09-24T03:49:24.422Z,10.69
2022-09-24T03:50:24.422Z,10.65
2022-09-24T03:51:24.443Z,10.63
2022-09-24T03:52:24.446Z,10.65
2022-09-24T03:53:24.447Z,10.60
2022-09-24T03:54:25.463Z,10.47
2022-09-24T03:55:24.379Z,10.62
2022-09-24T03:56:24.362Z,10.62
2022-09-24T03:57:24.389Z,10.52
2022-09-24T03:58:24.341Z,10.60
2022-09-24T03:59:24.426Z,10.60
2022-09-24T04:00:24.549Z,10.65
2022-09-24T04:01:24.359Z,10.57
2022-09-24T04:02:24.344Z,10.51
2022-09-24T04:03:24.345Z,10.55
2022-09-24T04:04:24.318Z,10.55
2022-09-24T04:05:24.279Z,10.55
2022-09-24T04:06:26.097Z,10.49
2022-09-24T04:07:24.247Z,10.68
2022-09-24T04:08:24.257Z,10.62
2022-09-24T04:09:24.261Z,10.54
2022-09-24T04:10:24.382Z,10.68
2022-09-24T04:11:24.203Z,10.63
2022-09-24T04:12:24.215Z,10.62
2022-09-24T04:13:24.176Z,10.62
2022-09-24T04:14:24.215Z,10.60
2022-09-24T04:15:24.187Z,10.51
2022-09-24T04:16:24.211Z,10.55
2022-09-24T04:17:24.165Z,10.60
2022-09-24T04:18:24.131Z,10.60
2022-09-24T04:19:24.137Z,10.47
2022-09-24T04:20:24.261Z,10.43
2022-09-24T04:21:24.166Z,10.32
2022-09-24T04:22:24.101Z,10.36
2022-09-24T04:23:24.116Z,10.28
2022-09-24T04:24:24.228Z,10.36
2022-09-24T04:25:24.085Z,10.43
2022-09-24T04:26:24.058Z,10.35
2022-09-24T04:27:24.093Z,10.31
2022-09-24T04:28:24.028Z,10.35
2022-09-24T04:29:24.037Z,10.43
2022-09-24T04:30:24.504Z,10.38
2022-09-24T04:31:24.096Z,10.17
2022-09-24T04:32:24.016Z,10.17
2022-09-24T04:33:23.997Z,10.20
2022-09-24T04:34:23.957Z,10.25
2022-09-24T04:35:23.981Z,10.14
2022-09-24T04:36:23.936Z,10.11
2022-09-24T04:37:23.940Z,10.10
2022-09-24T04:38:23.937Z,10.13
2022-09-24T04:39:23.877Z,10.06
2022-09-24T04:40:24.026Z,10.01
2022-09-24T04:41:23.869Z,9.80
2022-09-24T04:42:23.961Z,9.63
2022-09-24T04:43:23.862Z,9.67
2022-09-24T04:44:24.786Z,9.63
2022-09-24T04:45:23.854Z,9.71
2022-09-24T04:46:23.860Z,9.65
2022-09-24T04:47:23.803Z,9.75
2022-09-24T04:48:23.817Z,9.77
2022-09-24T04:49:23.840Z,9.63
2022-09-24T04:50:23.765Z,9.65
2022-09-24T04:51:23.825Z,9.73
2022-09-24T04:52:23.741Z,9.67
2022-09-24T04:53:23.789Z,9.74
2022-09-24T04:54:23.737Z,9.70
2022-09-24T04:55:23.735Z,9.70
2022-09-24T04:56:23.749Z,9.81
2022-09-24T04:57:23.713Z,9.73
2022-09-24T04:58:23.713Z,9.86
2022-09-24T04:59:24.676Z,9.89
2022-09-24T05:00:23.693Z,9.85
2022-09-24T05:01:23.710Z,9.88
2022-09-24T05:02:23.733Z,9.68
2022-09-24T05:03:23.653Z,9.65
2022-09-24T05:04:23.661Z,9.59
2022-09-24T05:05:24.725Z,9.50
2022-09-24T05:06:23.622Z,9.65
2022-09-24T05:07:23.870Z,9.60
2022-09-24T05:08:23.578Z,9.62
2022-09-24T05:09:23.593Z,9.67
2022-09-24T05:10:23.590Z,9.65
2022-09-24T05:11:23.569Z,9.67
2022-09-24T05:12:23.563Z,9.60
2022-09-24T05:13:23.559Z,9.63
2022-09-24T05:14:23.575Z,9.60
2022-09-24T05:15:23.503Z,9.58
2022-09-24T05:16:23.562Z,9.58
2022-09-24T05:17:23.539Z,9.60
2022-09-24T05:18:23.523Z,9.41
2022-09-24T05:19:23.502Z,9.30
2022-09-24T05:20:24.283Z,9.34
2022-09-24T05:21:23.504Z,9.24
2022-09-24T05:22:23.473Z,9.20
2022-09-24T05:23:23.537Z,9.30
2022-09-24T05:24:23.441Z,9.30
2022-09-24T05:25:23.442Z,9.41
2022-09-24T05:26:23.438Z,9.24
2022-09-24T05:27:23.407Z,9.35
2022-09-24T05:28:23.355Z,9.37
2022-09-24T05:29:23.387Z,9.38
2022-09-24T05:30:23.361Z,9.27
2022-09-24T05:31:23.392Z,9.30
2022-09-24T05:32:23.339Z,9.20
2022-09-24T05:33:23.322Z,9.26
2022-09-24T05:34:23.325Z,9.35
2022-09-24T05:35:23.411Z,9.23
2022-09-24T05:36:23.300Z,9.34
2022-09-24T05:37:23.280Z,9.37
2022-09-24T05:38:23.280Z,9.37
2022-09-24T05:39:23.231Z,9.38
2022-09-24T05:40:23.294Z,9.37
2022-09-24T05:41:23.205Z,9.41
2022-09-24T05:42:23.272Z,9.42
2022-09-24T05:43:23.187Z,9.62
2022-09-24T05:44:23.191Z,9.45
2022-09-24T05:45:23.193Z,9.50
2022-09-24T05:46:23.238Z,9.62
2022-09-24T05:47:23.247Z,9.58
2022-09-24T05:48:23.243Z,9.65
2022-09-24T05:49:23.184Z,9.68
2022-09-24T05:50:23.133Z,9.78
2022-09-24T05:51:23.120Z,9.81
2022-09-24T05:52:23.160Z,9.95
2022-09-24T05:53:23.149Z,9.98
2022-09-24T05:54:23.103Z,9.92
2022-09-24T05:55:23.081Z,9.99
2022-09-24T05:56:23.068Z,10.01
2022-09-24T05:57:23.048Z,9.98
2022-09-24T05:58:23.052Z,9.98
2022-09-24T05:59:23.022Z,10.17
2022-09-24T06:00:23.017Z,10.22
2022-09-24T06:01:23.135Z,10.29
2022-09-24T06:02:23.102Z,10.20
2022-09-24T06:03:23.084Z,10.29
2022-09-24T06:04:23.010Z,10.28
2022-09-24T06:05:22.958Z,10.31
2022-09-24T06:06:22.953Z,10.24
2022-09-24T06:07:22.993Z,10.25
2022-09-24T06:08:22.932Z,10.20
2022-09-24T06:09:23.033Z,10.20
2022-09-24T06:10:22.890Z,10.26
2022-09-24T06:11:22.897Z,10.35
2022-09-24T06:12:22.914Z,10.38
2022-09-24T06:13:22.884Z,10.34
2022-09-24T06:14:23.009Z,10.38
2022-09-24T06:15:22.898Z,10.44
2022-09-24T06:16:22.908Z,10.52
2022-09-24T06:17:22.821Z,10.49
2022-09-24T06:18:23.825Z,10.62
2022-09-24T06:19:22.813Z,10.60
2022-09-24T06:20:22.804Z,10.68
2022-09-24T06:21:22.911Z,10.73
2022-09-24T06:22:27.593Z,10.86
2022-09-24T06:23:22.760Z,10.81
2022-09-24T06:24:22.795Z,10.86
2022-09-24T06:25:22.737Z,10.78
2022-09-24T06:26:22.773Z,10.70
2022-09-24T06:27:22.723Z,10.68
2022-09-24T06:28:22.701Z,10.68
2022-09-24T06:29:22.673Z,10.68
2022-09-24T06:30:22.690Z,10.69
2022-09-24T06:31:22.966Z,10.84
2022-09-24T06:32:22.657Z,10.78
2022-09-24T06:33:23.686Z,10.80
2022-09-24T06:34:22.649Z,10.87
2022-09-24T06:35:23.634Z,11.02
2022-09-24T06:36:22.641Z,10.95
2022-09-24T06:37:22.620Z,10.94
2022-09-24T06:38:22.650Z,10.98
2022-09-24T06:39:22.622Z,11.02
2022-09-24T06:40:22.670Z,10.88
2022-09-24T06:41:22.624Z,10.86
2022-09-24T06:42:22.609Z,10.72
2022-09-24T06:43:22.571Z,10.70
2022-09-24T06:44:22.575Z,10.60
2022-09-24T06:45:22.523Z,10.58
2022-09-24T06:46:23.590Z,10.54
2022-09-24T06:47:22.654Z,10.68
2022-09-24T06:48:22.486Z,10.87
2022-09-24T06:49:22.520Z,10.88
2022-09-24T06:50:23.299Z,10.94
2022-09-24T06:51:22.442Z,10.80
2022-09-24T06:52:22.473Z,10.72
2022-09-24T06:53:22.487Z,10.84
2022-09-24T06:54:22.660Z,10.75
2022-09-24T06:55:22.443Z,10.75
2022-09-24T06:56:22.447Z,10.73
2022-09-24T06:57:28.684Z,10.81
2022-09-24T06:58:24.412Z,11.01
2022-09-24T06:59:22.919Z,11.08
2022-09-24T07:00:23.517Z,11.27
2022-09-24T07:01:23.055Z,11.36
2022-09-24T07:02:24.319Z,11.48
2022-09-24T07:03:22.394Z,11.57
2022-09-24T07:04:22.448Z,11.63
2022-09-24T07:05:23.316Z,11.72
2022-09-24T07:06:22.325Z,11.66
2022-09-24T07:07:22.506Z,11.79
2022-09-24T07:08:22.304Z,11.79
2022-09-24T07:09:25.306Z,11.88
2022-09-24T07:10:22.285Z,11.79
2022-09-24T07:11:23.292Z,11.97
2022-09-24T07:12:22.874Z,11.85
2022-09-24T07:13:22.248Z,11.85
2022-09-24T07:14:22.219Z,11.81
2022-09-24T07:15:22.203Z,11.75
2022-09-24T07:16:22.256Z,11.79
2022-09-24T07:17:22.261Z,11.70
2022-09-24T07:18:22.291Z,11.88
2022-09-24T07:19:22.180Z,11.94
2022-09-24T07:20:22.155Z,11.96
2022-09-24T07:21:22.181Z,12.03
2022-09-24T07:22:22.865Z,12.07
2022-09-24T07:23:22.184Z,12.29
2022-09-24T07:24:22.095Z,12.33
2022-09-24T07:25:22.096Z,12.36
2022-09-24T07:26:22.117Z,12.54
2022-09-24T07:27:22.077Z,12.36
2022-09-24T07:28:22.416Z,12.36
2022-09-24T07:29:22.056Z,12.44
2022-09-24T07:30:22.041Z,12.49
2022-09-24T07:31:22.136Z,12.61
2022-09-24T07:32:25.051Z,12.59
2022-09-24T07:33:23.018Z,12.63
2022-09-24T07:34:22.050Z,12.61
2022-09-24T07:35:22.017Z,12.74
2022-09-24T07:36:22.093Z,12.62
2022-09-24T07:37:21.970Z,12.36
2022-09-24T07:38:21.993Z,12.38
2022-09-24T07:39:22.002Z,12.46
2022-09-24T07:40:22.030Z,12.37
2022-09-24T07:41:21.914Z,12.51
2022-09-24T07:42:21.893Z,12.63
2022-09-24T07:43:21.913Z,12.70
2022-09-24T07:44:21.899Z,12.69
2022-09-24T07:45:21.934Z,12.73
2022-09-24T07:46:22.906Z,12.81
2022-09-24T07:47:21.885Z,12.85
2022-09-24T07:48:21.910Z,12.88
2022-09-24T07:49:21.862Z,12.96
2022-09-24T07:50:21.842Z,12.88
2022-09-24T07:51:21.843Z,13.01
2022-09-24T07:52:21.831Z,12.94
2022-09-24T07:53:21.807Z,12.87
2022-09-24T07:54:21.822Z,12.95
2022-09-24T07:55:21.802Z,13.14
2022-09-24T07:56:21.784Z,13.21
2022-09-24T07:57:21.766Z,13.29
2022-09-24T07:58:22.855Z,13.25
2022-09-24T07:59:21.754Z,13.24
2022-09-24T08:00:21.721Z,13.21
2022-09-24T08:01:21.761Z,13.28
2022-09-24T08:02:21.788Z,13.47
2022-09-24T08:03:21.826Z,13.53
2022-09-24T08:04:21.745Z,13.63
2022-09-24T08:05:21.678Z,13.54
2022-09-24T08:06:21.691Z,13.57
2022-09-24T08:07:21.660Z,13.66
2022-09-24T08:08:21.681Z,13.71
2022-09-24T08:09:21.713Z,13.75
2022-09-24T08:10:21.656Z,13.79
2022-09-24T08:11:21.735Z,13.94
2022-09-24T08:12:21.606Z,13.94
2022-09-24T08:13:25.376Z,13.90
2022-09-24T08:14:23.618Z,13.83
2022-09-24T08:15:21.583Z,13.62
2022-09-24T08:16:21.640Z,13.55
2022-09-24T08:17:21.586Z,13.29
2022-09-24T08:18:21.563Z,13.31
2022-09-24T08:19:21.602Z,13.31
2022-09-24T08:20:21.641Z,13.32
2022-09-24T08:21:21.503Z,13.35
2022-09-24T08:22:21.666Z,13.41
2022-09-24T08:23:21.514Z,13.51
2022-09-24T08:24:21.510Z,13.69
2022-09-24T08:25:21.523Z,13.76
2022-09-24T08:26:21.459Z,13.76
2022-09-24T08:27:21.501Z,13.87
2022-09-24T08:28:21.526Z,13.93
2022-09-24T08:29:21.472Z,13.88
2022-09-24T08:30:21.540Z,13.96
2022-09-24T08:31:21.550Z,13.96
2022-09-24T08:32:21.438Z,13.90
2022-09-24T08:33:21.398Z,14.11
2022-09-24T08:34:21.443Z,14.24
2022-09-24T08:35:21.390Z,14.36
2022-09-24T08:36:21.394Z,14.36
2022-09-24T08:37:21.360Z,14.34
2022-09-24T08:38:21.363Z,14.31
2022-09-24T08:39:21.351Z,14.36
2022-09-24T08:40:21.431Z,14.16
2022-09-24T08:41:21.338Z,14.20
2022-09-24T08:42:21.367Z,14.17
2022-09-24T08:43:21.328Z,14.08
2022-09-24T08:44:21.324Z,13.93
2022-09-24T08:45:21.280Z,13.84
2022-09-24T08:46:21.365Z,13.91
2022-09-24T08:47:21.298Z,13.99
2022-09-24T08:48:21.281Z,14.04
2022-09-24T08:49:21.309Z,14.04
2022-09-24T08:50:21.318Z,14.11
2022-09-24T08:51:21.229Z,14.11
2022-09-24T08:52:21.200Z,13.99
2022-09-24T08:53:21.241Z,13.91
2022-09-24T08:54:21.892Z,13.88
2022-09-24T08:55:21.239Z,13.79
2022-09-24T08:56:21.267Z,13.80
2022-09-24T08:57:21.123Z,13.90
2022-09-24T08:58:21.191Z,13.80
2022-09-24T08:59:21.119Z,13.72
2022-09-24T09:00:21.112Z,13.68
2022-09-24T09:01:21.198Z,13.69
2022-09-24T09:02:21.842Z,13.75
2022-09-24T09:03:21.120Z,13.80
2022-09-24T09:04:21.060Z,14.01
2022-09-24T09:05:21.053Z,13.91
2022-09-24T09:06:21.046Z,14.01
2022-09-24T09:07:21.040Z,13.90
2022-09-24T09:08:45.030Z,13.93
2022-09-24T09:09:23.042Z,14.06
2022-09-24T09:10:21.015Z,13.87
2022-09-24T09:11:20.999Z,13.86
2022-09-24T09:12:20.995Z,13.98
2022-09-24T09:13:21.005Z,14.01
2022-09-24T09:14:20.968Z,14.05
2022-09-24T09:15:20.928Z,14.08
2022-09-24T09:16:20.945Z,13.93
2022-09-24T09:17:20.910Z,13.99
2022-09-24T09:18:20.898Z,14.12
2022-09-24T09:19:20.896Z,14.13
2022-09-24T09:20:20.893Z,14.17
2022-09-24T09:21:20.884Z,14.26
2022-09-24T09:22:20.814Z,14.27
2022-09-24T09:23:21.835Z,14.26
2022-09-24T09:24:20.846Z,14.41
2022-09-24T09:25:20.851Z,14.53
2022-09-24T09:26:20.845Z,14.48
2022-09-24T09:27:20.807Z,14.44
2022-09-24T09:28:20.788Z,14.35
2022-09-24T09:29:20.782Z,14.59
2022-09-24T09:30:20.782Z,14.46
2022-09-24T09:31:20.911Z,14.54
2022-09-24T09:32:20.737Z,14.52
2022-09-24T09:33:20.716Z,14.46
2022-09-24T09:34:20.793Z,14.46
2022-09-24T09:35:20.712Z,14.35
2022-09-24T09:36:20.703Z,14.26
2022-09-24T09:37:25.521Z,14.35
2022-09-24T09:38:22.722Z,14.31
2022-09-24T09:39:21.373Z,14.38
2022-09-24T09:40:20.738Z,14.35
2022-09-24T09:41:20.642Z,14.24
2022-09-24T09:42:21.646Z,14.29
2022-09-24T09:43:21.670Z,14.45
2022-09-24T09:44:20.603Z,14.56
2022-09-24T09:45:25.463Z,14.45
2022-09-24T09:46:21.660Z,14.63
2022-09-24T09:47:20.702Z,14.57
2022-09-24T09:48:20.586Z,14.67
2022-09-24T09:49:20.562Z,14.63
2022-09-24T09:50:20.526Z,14.63
2022-09-24T09:51:22.823Z,14.69
2022-09-24T09:52:21.527Z,14.64
2022-09-24T09:53:20.512Z,14.71
2022-09-24T09:54:20.488Z,14.80
2022-09-24T09:55:20.455Z,14.78
2022-09-24T09:56:20.464Z,14.80
2022-09-24T09:57:20.471Z,14.86
2022-09-24T09:58:20.462Z,14.83
2022-09-24T09:59:20.419Z,14.91
2022-09-24T10:00:20.398Z,14.86
2022-09-24T10:01:20.398Z,15.04
2022-09-24T10:02:20.625Z,15.09
2022-09-24T10:03:20.510Z,15.13
2022-09-24T10:04:20.416Z,15.07
2022-09-24T10:05:26.311Z,15.00
2022-09-24T10:06:22.354Z,15.12
2022-09-24T10:07:20.351Z,15.11
2022-09-24T10:08:20.372Z,15.11
2022-09-24T10:09:20.328Z,15.05
2022-09-24T10:10:20.324Z,14.94
2022-09-24T10:11:20.296Z,14.98
2022-09-24T10:12:20.291Z,14.98
2022-09-24T10:13:20.268Z,15.03
2022-09-24T10:14:20.263Z,15.07
2022-09-24T10:15:20.239Z,15.18
2022-09-24T10:16:20.273Z,15.18
2022-09-24T10:17:20.231Z,15.18
2022-09-24T10:18:20.182Z,15.18
2022-09-24T10:19:20.212Z,15.07
2022-09-24T10:20:20.173Z,15.15
2022-09-24T10:21:23.658Z,15.25
2022-09-24T10:22:21.248Z,15.22
2022-09-24T10:23:20.153Z,15.23
2022-09-24T10:24:20.141Z,15.20
2022-09-24T10:25:20.176Z,15.19
2022-09-24T10:26:20.124Z,15.25
2022-09-24T10:27:20.113Z,15.43
2022-09-24T10:28:20.115Z,15.52
2022-09-24T10:29:20.056Z,15.55
2022-09-24T10:30:20.307Z,15.64
2022-09-24T10:31:20.066Z,15.71
2022-09-24T10:32:20.034Z,15.70
2022-09-24T10:33:19.985Z,15.81
2022-09-24T10:34:20.055Z,15.96
2022-09-24T10:35:19.985Z,15.89
2022-09-24T10:36:19.998Z,15.95
2022-09-24T10:37:19.989Z,15.85
2022-09-24T10:38:20.011Z,15.80
2022-09-24T10:39:20.006Z,15.95
2022-09-24T10:40:20.035Z,15.99
2022-09-24T10:41:19.927Z,15.96
2022-09-24T10:42:19.892Z,15.92
2022-09-24T10:43:19.924Z,15.88
2022-09-24T10:44:19.881Z,15.92
2022-09-24T10:45:19.897Z,15.96
2022-09-24T10:46:20.017Z,16.14
2022-09-24T10:47:19.847Z,16.22
2022-09-24T10:48:19.896Z,16.37
2022-09-24T10:49:19.829Z,16.32
2022-09-24T10:50:20.403Z,16.32
2022-09-24T10:51:19.850Z,16.42
2022-09-24T10:52:19.797Z,16.30
2022-09-24T10:53:19.817Z,16.45
2022-09-24T10:54:19.825Z,16.57
2022-09-24T10:55:19.778Z,16.55
2022-09-24T10:56:19.735Z,16.47
2022-09-24T10:57:19.735Z,16.52
2022-09-24T10:58:19.732Z,16.34
2022-09-24T10:59:19.688Z,16.41
2022-09-24T11:00:19.704Z,16.40
2022-09-24T11:01:19.757Z,16.48
2022-09-24T11:02:19.738Z,16.52
2022-09-24T11:03:19.764Z,16.66
2022-09-24T11:04:19.695Z,16.69
2022-09-24T11:05:19.623Z,16.84
2022-09-24T11:06:19.628Z,16.82
2022-09-24T11:07:19.645Z,16.82
2022-09-24T11:08:19.603Z,16.88
2022-09-24T11:09:19.621Z,16.91
2022-09-24T11:10:19.576Z,16.88
2022-09-24T11:11:19.560Z,17.02
2022-09-24T11:12:19.617Z,17.02
2022-09-24T11:13:19.584Z,17.17
2022-09-24T11:14:19.553Z,17.12
2022-09-24T11:15:20.536Z,17.15
2022-09-24T11:16:19.566Z,17.18
2022-09-24T11:17:19.514Z,17.12
2022-09-24T11:18:19.497Z,17.14
2022-09-24T11:19:19.522Z,17.20
2022-09-24T11:20:19.497Z,17.20
2022-09-24T11:21:19.480Z,17.27
2022-09-24T11:22:19.453Z,17.32
2022-09-24T11:23:19.464Z,17.22
2022-09-24T11:24:19.421Z,17.22
2022-09-24T11:25:19.443Z,17.12
2022-09-24T11:26:19.365Z,17.02
2022-09-24T11:27:19.380Z,17.02
2022-09-24T11:28:19.391Z,16.96
2022-09-24T11:29:19.389Z,17.12
2022-09-24T11:30:19.361Z,17.14
2022-09-24T11:31:19.458Z,17.20
2022-09-24T11:32:19.313Z,17.20
2022-09-24T11:33:22.829Z,17.15
2022-09-24T11:34:19.300Z,16.99
2022-09-24T11:35:19.301Z,17.09
2022-09-24T11:36:19.296Z,17.28
2022-09-24T11:37:20.243Z,17.22
2022-09-24T11:38:19.235Z,17.18
2022-09-24T11:39:19.247Z,17.12
2022-09-24T11:40:19.357Z,16.99
2022-09-24T11:41:19.227Z,17.02
2022-09-24T11:42:19.298Z,17.18
2022-09-24T11:43:19.237Z,17.02
2022-09-24T11:44:19.206Z,16.96
2022-09-24T11:45:19.853Z,17.18
2022-09-24T11:46:19.285Z,17.35
2022-09-24T11:47:19.172Z,17.22
2022-09-24T11:48:19.177Z,17.18
2022-09-24T11:49:19.139Z,17.22
2022-09-24T11:50:19.190Z,17.14
2022-09-24T11:51:19.234Z,17.17
2022-09-24T11:52:19.131Z,17.17
2022-09-24T11:53:19.174Z,17.24
2022-09-24T11:54:19.103Z,17.18
2022-09-24T11:55:19.125Z,17.03
2022-09-24T11:56:19.159Z,17.03
2022-09-24T11:57:19.059Z,17.09
2022-09-24T11:58:19.099Z,17.06
2022-09-24T11:59:19.118Z,17.14
2022-09-24T12:00:19.060Z,17.35
2022-09-24T12:01:19.285Z,17.33
2022-09-24T12:02:19.097Z,17.39
2022-09-24T12:03:23.615Z,17.36
2022-09-24T12:04:20.992Z,17.36
2022-09-24T12:05:18.963Z,17.53
2022-09-24T12:06:18.992Z,17.36
2022-09-24T12:07:18.963Z,17.28
2022-09-24T12:08:18.966Z,17.18
2022-09-24T12:09:18.925Z,17.20
2022-09-24T12:10:18.928Z,17.14
2022-09-24T12:11:18.953Z,17.24
2022-09-24T12:12:18.892Z,17.32
2022-09-24T12:13:18.865Z,17.43
2022-09-24T12:14:18.875Z,17.54
2022-09-24T12:15:18.869Z,17.65
2022-09-24T12:16:18.918Z,17.86
2022-09-24T12:17:18.844Z,17.94
2022-09-24T12:18:18.877Z,18.02
2022-09-24T12:19:18.871Z,17.87
2022-09-24T12:20:18.830Z,17.84
2022-09-24T12:21:18.798Z,17.84
2022-09-24T12:22:18.795Z,17.86
2022-09-24T12:23:18.820Z,17.92
2022-09-24T12:24:18.741Z,17.99
2022-09-24T12:25:18.801Z,17.96
2022-09-24T12:26:18.847Z,17.96
2022-09-24T12:27:18.798Z,18.02
2022-09-24T12:28:18.745Z,17.98
2022-09-24T12:29:18.728Z,17.87
2022-09-24T12:30:18.775Z,17.80
2022-09-24T12:31:18.818Z,17.73
2022-09-24T12:32:18.684Z,17.66
2022-09-24T12:33:18.692Z,17.73
2022-09-24T12:34:18.682Z,17.73
2022-09-24T12:35:18.648Z,17.80
2022-09-24T12:36:18.681Z,17.76
2022-09-24T12:37:18.704Z,17.80
2022-09-24T12:38:18.614Z,17.96
2022-09-24T12:39:18.637Z,18.05
2022-09-24T12:40:18.628Z,17.96
2022-09-24T12:41:18.613Z,18.09
2022-09-24T12:42:18.589Z,18.20
2022-09-24T12:43:18.588Z,18.42
2022-09-24T12:44:22.130Z,18.56
2022-09-24T12:45:19.557Z,18.71
2022-09-24T12:46:18.642Z,18.83
2022-09-24T12:47:18.548Z,18.79
2022-09-24T12:48:18.502Z,18.94
2022-09-24T12:49:18.509Z,19.05
2022-09-24T12:50:18.526Z,19.07
2022-09-24T12:51:18.482Z,19.24
2022-09-24T12:52:18.546Z,19.27
2022-09-24T12:53:18.441Z,19.35
2022-09-24T12:54:18.478Z,19.32
2022-09-24T12:55:18.525Z,19.43